Weather observations for the past three days for
North Wilkesboro, Wilkes County Airport
Imperial (Metric)
Date Time (edt) Wind (mph) Vis. (mi.) Weather Sky Cond. Temperature (ºF) Relative Humidity Wind Chill (°F) Heat Index (°F) Pressure Precipitation (in)
Air Dwpt 6 hour altimeter (in) sea level (mb) 1 hr 3 hr 6 hr
Max. Min.
02 16:15 N 7 10.00 Fair CLR 64.4 30.2 28% 29.91 0.0
02 15:55 W 5 10.00 Fair CLR 62.6 32 32% 29.91 0.0
02 15:35 Calm 10.00 Fair CLR 62.6 32 32% 29.92 0.0
02 15:15 SE 8 10.00 Fair CLR 62.6 33.8 34% 29.93 0.0
02 14:55 SE 6 10.00 Fair CLR 60.8 32 34% 29.93 0.0
02 14:35 E 8 10.00 Fair CLR 60.8 32 34% 29.93 0.0
02 14:15 SE 6 10.00 Fair CLR 60.8 32 34% 29.94 0.0
02 13:55 SE 7 10.00 Fair CLR 59 32 36% 29.95 0.0
02 13:35 Calm 10.00 Partly Cloudy SCT065 59 30.2 34% 29.96 0.0
02 13:15 Calm 10.00 Fair CLR 59 30.2 34% 29.97 0.0
02 12:55 S 3 10.00 Partly Cloudy SCT085 57.2 30.2 36% 29.98 0.0
02 12:35 Calm 10.00 Overcast SCT070 OVC085 53.6 28.4 38% 30 0.0
02 12:15 E 3 10.00 Overcast BKN070 OVC085 53.6 28.4 38% 30.01 0.0
02 11:55 NE 3 10.00 Overcast OVC060 53.6 28.4 38% 30.01 0.0
02 11:35 Calm 10.00 Overcast OVC060 53.6 30.2 41% 30.02 0.0
02 11:15 N 5 10.00 Overcast BKN060 OVC085 51.8 30.2 44% 30.01 0.0
02 10:55 NE 5 10.00 Overcast OVC060 51.8 30.2 44% 30.01 0.0
02 10:35 NE 3 10.00 Overcast OVC060 51.8 32 47% 30 0.0
02 10:15 N 5 10.00 Overcast OVC060 51.8 32 47% 30 0.0
02 09:55 N 6 10.00 Overcast OVC060 51.8 32 47% 30 0.0
02 09:35 NE 6 10.00 Overcast OVC060 51.8 33.8 50% 30 0.0
02 09:15 NE 3 10.00 Overcast OVC060 51.8 33.8 50% 30 0.0
02 08:55 Calm 10.00 Overcast OVC060 51.8 37.4 58% 30 0.0
02 08:35 N 3 10.00 Overcast OVC055 51.8 37.4 58% 29.99 0.0
02 08:15 Calm 10.00 Overcast OVC055 51.8 37.4 58% 29.98 0.0
02 07:55 Calm 10.00 Overcast SCT060 OVC065 50 35.6 58% 29.98 0.0
02 07:35 Calm 10.00 Overcast OVC060 50 37.4 62% 29.98 0.0
02 07:15 Calm 10.00 Mostly Cloudy BKN060 BKN080 50 37.4 62% 29.98 0.0
02 06:55 Calm 10.00 Partly Cloudy SCT060 50 37.4 62% 29.97 0.0
02 06:35 Calm 10.00 Partly Cloudy SCT060 50 37.4 62% 29.97 0.0
02 06:15 Calm 10.00 Partly Cloudy SCT060 SCT075 51.8 37.4 58% 29.97 0.0
02 05:55 N 3 10.00 Overcast SCT060 OVC075 51.8 37.4 58% 29.97 0.0
02 05:35 N 3 10.00 Overcast OVC075 51.8 37.4 58% 29.97 0.0
02 05:15 N 5 10.00 Mostly Cloudy BKN075 51.8 37.4 58% 29.98 0.0
02 04:55 Calm 10.00 Partly Cloudy SCT075 51.8 41 67% 29.97 0.0
02 04:35 Calm 10.00 Mostly Cloudy BKN075 51.8 41 67% 29.97 0.0
02 04:15 Calm 10.00 Mostly Cloudy BKN075 51.8 41 67% 29.97 0.0
02 03:55 NW 6 10.00 Partly Cloudy SCT075 50 42.8 76% 48 29.96 0.0
02 03:35 Calm 10.00 Fair CLR 50 44.6 82% 29.95 0.0
02 03:15 Calm 10.00 Fair CLR 50 44.6 82% 29.95 0.0
02 02:55 Calm 10.00 Fair CLR 50 44.6 82% 29.95 0.0
02 02:35 Calm 10.00 Fair CLR 50 46.4 88% 29.96 0.0
02 02:15 Calm 10.00 Fair CLR 50 44.6 82% 29.96 0.0
02 01:55 N 3 10.00 Fair CLR 51.8 44.6 77% 29.97 0.0
02 01:35 N 3 10.00 Fair CLR 50 44.6 82% 29.97 0.0
02 01:15 Calm 10.00 Fair CLR 51.8 44.6 77% 29.97 0.0
02 00:55 N 5 10.00 Fair CLR 51.8 46.4 82% 29.97 0.0
02 00:35 N 3 10.00 Fair CLR 51.8 44.6 77% 29.97 0.0
02 00:15 NE 3 10.00 Fair CLR 53.6 44.6 72% 29.96 0.0
01 23:55 Calm 10.00 Fair CLR 53.6 44.6 72% 29.96 0.0
01 23:35 Calm 10.00 Fair CLR 53.6 44.6 72% 29.96 0.0
01 23:15 Calm 10.00 Fair CLR 53.6 44.6 72% 29.97 0.0
01 22:55 Calm 10.00 Fair CLR 51.8 44.6 77% 29.97 0.0
01 22:35 Calm 10.00 Fair CLR 53.6 44.6 72% 29.96 0.0
01 22:15 Calm 10.00 Fair CLR 53.6 44.6 72% 29.96 0.0
01 21:55 Calm 10.00 Fair CLR 53.6 44.6 72% 29.96 0.0
01 21:35 Calm 10.00 Fair CLR 53.6 44.6 72% 29.95 0.0
01 21:15 Calm 10.00 Fair CLR 55.4 44.6 67% 29.95 0.0
01 20:55 Calm 10.00 Fair CLR 55.4 44.6 67% 29.94 0.0
01 20:35 S 3 10.00 Fair CLR 59 44.6 59% 29.93 0.0
01 20:15 S 5 10.00 Fair CLR 59 44.6 59% 29.91 0.0
01 19:55 S 5 10.00 Fair CLR 60.8 44.6 55% 29.92 0.0
01 19:35 S 5 10.00 Fair CLR 60.8 42.8 52% 29.91 0.0
01 19:15 S 7 10.00 Fair CLR 62.6 42.8 49% 29.91 0.0
01 18:55 S 7 10.00 Fair CLR 64.4 44.6 49% 29.91 0.0
01 18:35 S 8 10.00 Fair CLR 64.4 42.8 46% 29.91 0.0
01 18:15 S 7 10.00 Fair CLR 64.4 41 43% 29.91 0.0
01 17:55 S 13 10.00 Fair CLR 64.4 41 43% 29.91 0.0
01 17:35 S 10 10.00 Fair CLR 64.4 41 43% 29.92 0.0
01 17:15 S 9 10.00 Fair CLR 66.2 41 40% 29.92 0.0
01 16:55 SW 9 10.00 Fair CLR 66.2 41 40% 29.92 0.0
01 16:35 S 5 G 17 10.00 Fair CLR 64.4 41 43% 29.93 0.0
01 16:15 SW 7 10.00 Fair CLR 66.2 39.2 37% 29.93 0.0
01 15:55 S 5 10.00 Fair CLR 66.2 39.2 37% 29.95 0.0
01 15:35 SW 6 10.00 Fair CLR 66.2 39.2 37% 29.95 0.0
01 15:15 S 5 G 16 10.00 Fair CLR 66.2 39.2 37% 29.96 0.0
01 14:55 SW 12 G 18 10.00 Fair CLR 64.4 37.4 37% 29.97 0.0
01 14:35 S 9 10.00 Fair CLR 64.4 39.2 40% 29.98 0.0
01 14:15 S 8 10.00 Fair CLR 64.4 37.4 37% 29.99 0.0
01 13:55 SW 6 10.00 Fair CLR 62.6 37.4 39% 30 0.0
01 13:35 SW 6 10.00 Fair CLR 62.6 37.4 39% 30 0.0
01 13:15 S 5 10.00 Fair CLR 60.8 37.4 42% 30.02 0.0
01 12:55 W 6 10.00 Fair CLR 59 37.4 45% 30.03 0.0
01 12:35 SW 3 10.00 Fair CLR 60.8 37.4 42% 30.04 0.0
01 12:15 NE 5 10.00 Mostly Cloudy BKN110 59 35.6 42% 30.04 0.0
01 11:55 Calm 10.00 Mostly Cloudy BKN110 57.2 35.6 44% 30.05 0.0
01 11:35 SE 5 10.00 Fair CLR 57.2 35.6 44% 30.05 0.0
01 11:15 SE 7 10.00 Partly Cloudy SCT075 SCT090 55.4 37.4 51% 30.06 0.0
01 10:55 NE 3 10.00 Mostly Cloudy BKN075 53.6 35.6 51% 30.06 0.0
01 10:35 E 3 10.00 Mostly Cloudy BKN075 53.6 35.6 51% 30.06 0.0
01 10:15 NE 3 10.00 Mostly Cloudy BKN075 BKN085 55.4 35.6 47% 30.06 0.0
01 09:55 SE 6 10.00 Partly Cloudy SCT075 SCT085 53.6 35.6 51% 30.06 0.0
01 09:35 SE 6 10.00 Partly Cloudy SCT085 51.8 35.6 54% 30.06 0.0
01 09:15 NE 5 10.00 Partly Cloudy SCT085 51.8 35.6 54% 30.06 0.0
01 08:55 Calm 10.00 Fair CLR 50 35.6 58% 30.06 0.0
01 08:35 Calm 10.00 Partly Cloudy SCT090 50 37.4 62% 30.06 0.0
01 08:15 Calm 10.00 Partly Cloudy SCT090 SCT120 46.4 37.4 71% 30.06 0.0
01 07:55 Calm 10.00 Partly Cloudy SCT090 SCT120 46.4 37.4 71% 30.05 0.0
01 07:35 Calm 10.00 Overcast OVC090 44.6 37.4 76% 30.05 0.0
01 07:15 Calm 10.00 Overcast OVC090 44.6 39.2 81% 30.05 0.0
01 06:55 Calm 10.00 Overcast BKN080 OVC110 42.8 39.2 87% 30.05 0.0
01 06:35 Calm 10.00 Overcast SCT080 OVC110 44.6 37.4 76% 30.04 0.0
01 06:15 Calm 10.00 Mostly Cloudy BKN080 BKN110 42.8 37.4 81% 30.03 0.0
01 05:55 Calm 10.00 Mostly Cloudy BKN080 BKN110 42.8 37.4 81% 30.02 0.0
01 05:35 Calm 10.00 Overcast OVC080 44.6 35.6 71% 30.03 0.0
01 05:15 Calm 10.00 Mostly Cloudy BKN080 42.8 37.4 81% 30.02 0.0
01 04:55 Calm 10.00 Mostly Cloudy BKN080 44.6 35.6 71% 30.01 0.0
01 04:35 Calm 10.00 Partly Cloudy SCT090 46.4 35.6 66% 30.02 0.0
01 04:15 Calm 10.00 Mostly Cloudy BKN090 46.4 35.6 66% 30.02 0.0
01 03:55 Calm 10.00 Overcast OVC090 46.4 35.6 66% 30.01 0.0
01 03:35 NE 3 10.00 Overcast OVC090 46.4 35.6 66% 30.01 0.0
01 03:15 Calm 10.00 Mostly Cloudy BKN090 44.6 37.4 76% 30.01 0.0
01 02:55 Calm 10.00 Partly Cloudy SCT090 44.6 37.4 76% 30.02 0.0
01 02:35 Calm 10.00 Partly Cloudy SCT090 44.6 37.4 76% 30.02 0.0
01 02:15 Calm 10.00 Fair CLR 44.6 35.6 71% 30.02 0.0
01 01:55 N 5 10.00 Fair CLR 46.4 35.6 66% 45 30.02 0.0
01 01:35 N 5 10.00 Fair CLR 44.6 35.6 71% 43 30.02 0.0
01 01:15 N 3 10.00 Fair CLR 46.4 35.6 66% 30.02 0.0
01 00:55 N 3 10.00 Fair CLR 46.4 35.6 66% 30.01 0.0
01 00:35 N 5 10.00 Fair CLR 46.4 35.6 66% 45 30.01 0.0
01 00:15 N 6 10.00 Fair CLR 46.4 35.6 66% 44 30.01 0.0
30 23:55 N 7 10.00 Fair CLR 50 33.8 54% 48 30 0.0
30 23:35 N 5 10.00 Fair CLR 50 33.8 54% 49 29.99 0.0
30 23:15 N 5 10.00 Fair CLR 51.8 33.8 50% 29.99 0.0
30 22:55 N 6 10.00 Fair CLR 51.8 32 47% 29.99 0.0
30 22:35 N 5 10.00 Fair CLR 53.6 32 44% 30 0.0
30 22:15 NW 7 10.00 Fair CLR 53.6 32 44% 29.99 0.0
30 21:55 N 6 10.00 Fair CLR 53.6 33.8 47% 29.99 0.0
30 21:35 Calm 10.00 Fair CLR 55.4 32 41% 29.97 0.0
30 21:15 N 5 10.00 Fair CLR 55.4 32 41% 29.97 0.0
30 20:55 N 5 10.00 Fair CLR 59 32 36% 29.96 0.0
30 20:35 NW 7 10.00 Fair CLR 59 32 36% 29.95 0.0
30 20:15 N 7 10.00 Fair CLR 60.8 32 34% 29.94 0.0
30 19:55 N 3 10.00 Fair CLR 62.6 32 32% 29.93 0.0
30 19:35 N 7 10.00 Fair CLR 64.4 32 30% 29.92 0.0
30 19:15 NW 6 10.00 Fair CLR 64.4 32 30% 29.91 0.0
30 18:55 NW 10 10.00 Fair CLR 66.2 32 28% 29.91 0.0
30 18:35 N 7 10.00 Fair CLR 68 30.2 24% 29.91 0.0
30 18:15 NW 7 G 20 10.00 Fair CLR 68 30.2 24% 29.9 0.0
30 17:55 N 7 10.00 Fair CLR 68 32 26% 29.9 0.0
30 17:35 NW 12 G 17 10.00 Fair CLR 68 32 26% 29.9 0.0
30 17:15 NW 3 G 17 10.00 Fair CLR 68 32 26% 29.89 0.0
30 16:55 W 8 10.00 Fair CLR 69.8 33.8 27% 29.88 0.0
30 16:35 NW 9 G 16 10.00 Fair CLR 69.8 33.8 27% 29.88 0.0
30 16:15 N 8 10.00 Fair CLR 68 33.8 28% 29.89 0.0
30 15:55 NW 7 10.00 Partly Cloudy SCT080 69.8 35.6 29% 29.89 0.0
30 15:35 Calm 10.00 Partly Cloudy SCT080 69.8 35.6 29% 29.9 0.0
30 15:15 W 10 G 17 10.00 Fair CLR 69.8 35.6 29% 29.9 0.0
30 14:55 NW 10 G 16 10.00 Fair CLR 68 35.6 30% 29.9 0.0
30 14:35 NW 14 G 23 10.00 Fair CLR 68 35.6 30% 29.89 0.0
30 14:15 N 13 G 20 10.00 Partly Cloudy SCT070 SCT080 69.8 41 35% 29.9 0.0
30 13:55 NW 12 G 24 10.00 Partly Cloudy SCT070 SCT080 68 37.4 33% 29.9 0.0
30 13:35 W 8 G 17 10.00 Partly Cloudy SCT065 68 41 38% 29.9 0.0
30 13:15 N 8 10.00 Partly Cloudy SCT065 68 41 38% 29.9 0.0
30 12:55 N 9 10.00 Fair CLR 68 41 38% 29.9 0.0
30 12:35 NW 5 10.00 Partly Cloudy SCT055 66.2 42.8 43% 29.91 0.0
30 12:15 NW 7 10.00 Fair CLR 68 42.8 40% 29.91 0.0
30 11:55 NW 6 10.00 Partly Cloudy SCT050 66.2 42.8 43% 29.91 0.0
30 11:35 NW 6 G 17 10.00 Fair CLR 64.4 42.8 46% 29.92 0.0
30 11:15 NW 6 G 17 10.00 Partly Cloudy SCT043 64.4 44.6 49% 29.92 0.0
30 10:55 W 7 10.00 Partly Cloudy SCT043 64.4 44.6 49% 29.93 0.0
30 10:35 NW 5 10.00 Fair CLR 62.6 44.6 52% 29.92 0.0
30 10:15 NW 7 10.00 Fair CLR 62.6 44.6 52% 29.92 0.0
30 09:55 N 6 10.00 Partly Cloudy SCT120 60.8 44.6 55% 29.93 0.0
30 09:35 NW 7 10.00 Partly Cloudy SCT120 60.8 46.4 59% 29.93 0.0
30 09:15 N 5 10.00 Mostly Cloudy BKN120 59 46.4 63% 29.93 0.0
30 08:55 N 3 10.00 Overcast SCT050 OVC120 55.4 46.4 72% 29.93 0.0
30 08:35 Calm 10.00 Mostly Cloudy BKN050 BKN120 53.6 48.2 82% 29.95 0.0
30 08:15 Calm 10.00 Partly Cloudy SCT050 SCT120 53.6 46.4 77% 29.95 0.0
30 07:55 SW 3 10.00 Partly Cloudy SCT120 53.6 46.4 77% 29.95 0.0
30 07:35 N 6 10.00 Partly Cloudy SCT120 53.6 46.4 77% 29.91 0.0
30 07:15 N 8 10.00 Partly Cloudy SCT120 53.6 46.4 77% 29.9 0.0
30 06:55 N 7 10.00 Fair CLR 53.6 44.6 72% 29.88 0.0
30 06:35 N 9 10.00 Fair CLR 57.2 44.6 63% 29.87 0.0
30 06:15 NW 6 10.00 Fair CLR 55.4 44.6 67% 29.88 0.0
30 05:55 N 5 10.00 Fair CLR 55.4 44.6 67% 29.88 0.0
30 05:35 N 3 10.00 Fair CLR 55.4 44.6 67% 29.88 0.0
30 05:15 Calm 10.00 Fair CLR 55.4 44.6 67% 29.87 0.0
30 04:55 S 6 10.00 Fair CLR 55.4 44.6 67% 29.87 0.0
30 04:35 Calm 10.00 Fair CLR 57.2 44.6 63% 29.85 0.0
30 04:15 N 5 10.00 Fair CLR 59 42.8 55% 29.84 0.0
30 03:55 NW 6 10.00 Fair CLR 59 42.8 55% 29.86 0.0
30 03:35 NW 9 10.00 Fair CLR 59 44.6 59% 29.86 0.0
30 03:15 NW 7 10.00 Fair CLR 59 44.6 59% 29.87 0.0
30 02:55 N 8 G 16 10.00 Fair CLR 59 46.4 63% 29.86 0.0
30 02:35 N 8 10.00 Fair CLR 60.8 48.2 63% 29.86 0.0
30 02:15 N 6 10.00 Fair CLR 59 50 72% 29.88 0.0
30 01:55 Calm 10.00 Fair CLR 60.8 50 68% 29.89 0.0
30 01:35 NW 3 10.00 Fair CLR 60.8 50 68% 29.91 0.0
30 01:15 Calm 10.00 Fair CLR 60.8 50 68% 29.91 0.0
30 00:55 Calm 10.00 Fair CLR 62.6 50 64% 29.9 0.0
30 00:35 NW 5 10.00 Fair CLR 62.6 50 64% 29.89 0.0
30 00:15 NW 6 10.00 Fair CLR 62.6 51.8 68% 29.89 0.0
29 23:55 NW 9 10.00 Fair CLR 62.6 51.8 68% 29.89 0.0
29 23:35 NW 8 10.00 Fair CLR 62.6 51.8 68% 29.89 0.0
29 23:15 NW 3 10.00 Fair CLR 62.6 51.8 68% 29.89 0.0
29 22:55 S 3 10.00 Fair CLR 64.4 51.8 64% 29.9 0.0
29 22:35 NW 3 10.00 Fair CLR 64.4 51.8 64% 29.89 0.0
29 22:15 NW 3 10.00 Fair CLR 64.4 53.6 68% 29.89 0.0
29 21:55 NW 6 10.00 Fair CLR 66.2 53.6 64% 29.88 0.0
29 21:35 NW 6 10.00 Partly Cloudy SCT090 68 53.6 60% 29.88 0.0
29 21:15 NW 7 10.00 Mostly Cloudy SCT070 BKN090 68 55.4 64% 29.87 0.0
29 20:55 N 6 10.00 Mostly Cloudy SCT060 BKN070 BKN080 68 55.4 64% 29.86 0.0
29 20:35 W 3 10.00 Partly Cloudy SCT060 69.8 55.4 60% 29.85 0.0
29 20:15 W 3 10.00 Fair CLR 69.8 55.4 60% 29.84 0.0
29 19:55 W 6 10.00 Partly Cloudy SCT075 SCT085 71.6 55.4 57% 29.83 0.0
29 19:35 W 5 10.00 Partly Cloudy SCT070 SCT085 73.4 55.4 53% 29.83 0.0
29 19:15 SW 5 10.00 Mostly Cloudy BKN070 BKN085 BKN100 73.4 60.8 65% 29.83 0.0
29 18:55 SW 5 10.00 Partly Cloudy SCT080 SCT100 73.4 62.6 69% 29.82 0.0
29 18:35 S 6 10.00 Partly Cloudy SCT047 SCT090 73.4 60.8 65% 29.82 0.0
29 18:15 S 6 10.00 Mostly Cloudy SCT049 BKN090 71.6 60.8 69% 29.82 0.0
29 17:55 S 5 10.00 Partly Cloudy SCT090 71.6 60.8 69% 29.82 0.0
29 17:35 S 6 10.00 Mostly Cloudy SCT065 SCT075 BKN090 71.6 60.8 69% 29.83 0.0
29 17:15 SW 6 10.00 Mostly Cloudy SCT032 SCT065 BKN090 73.4 60.8 65% 29.83 0.0
29 16:55 S 8 10.00 Mostly Cloudy SCT029 SCT034 BKN090 75.2 60.8 61% 77 29.83 0.0
Date Time (edt) Wind (mph) Vis. (mi.) Weather Sky Cond. Air Dwpt Max. Min. Relative Humidity Wind Chill (°F) Heat Index (°F) altimeter (in) sea level (mb) 1 hr 3 hr 6 hr
6 hour
Temperature (ºF) Pressure Precipitation (in)